Terminal Aerodrome Forecast
Issued by NWS

Home | Current Version | Previous Version | Text Only | Print | Product List | Glossary On
Versions: 1 2 3 4 5 6 7 8 9 10 11 12
939
FTPA31 PHFO 271138
TAFHKO
TAF
PHKO 271138Z 2712/2812 07005KT P6SM SCT020 BKN050
     FM271900 20010KT P6SM FEW030 SCT050
     FM280800 07005KT P6SM FEW020 BKN050=

USA.gov is the U.S. government's official web portal to all federal, state and local government web resources and services.